Latest Weather Observations for Bickley

IDW60801

Issued at 8:33 am WST Tuesday 26 July 2016 (issued every 30 minutes, with the page automatically refreshed every 10 minutes)

About weather observations | Map of weather stations | Latest weather observations for WA | Other Formats
Station Details ID: 009240 Name: BICKLEY Lat: -32.01 Lon: 116.14 Height: 384.0 m
Data from the previous 72 hours. | See also: Recent months at Bickley
Date/Time
WST
Temp
°C
App
Temp
°C
Dew
Point
°C
Rel
Hum
%
Delta-T
°C
Wind Press
QNH
hPa
Press
MSL
hPa
Rain since
9am
mm
Dir  Spd
km/h
Gust
km/h
Spd
kts
Gust
kts
26/08:30am 9.9 8.4 9.1 95 0.4 SE 7 9 4 5 - - 0.2
26/08:00am 9.4 7.9 8.6 95 0.4 SSE 6 7 3 4 - - 0.2
26/07:30am 8.3 6.6 7.4 94 0.4 S 6 9 3 5 - - 0.2
26/07:00am 7.7 5.6 6.6 93 0.5 SW 7 9 4 5 - - 0.2
26/06:30am 8.2 6.2 7.1 93 0.5 SSW 7 7 4 4 - - 0.2
26/06:00am 7.8 5.7 6.7 93 0.5 SSW 7 9 4 5 - - 0.0
26/05:30am 7.9 5.4 6.7 92 0.6 S 9 11 5 6 - - 0.0
26/05:00am 7.5 4.9 6.3 92 0.6 SSW 9 11 5 6 - - 0.0
26/04:30am 7.1 4.8 5.7 91 0.6 SSW 7 7 4 4 - - 0.0
26/04:00am 7.5 5.3 6.1 91 0.6 S 7 11 4 6 - - 0.0
26/03:30am 7.9 5.4 6.4 90 0.7 SSW 9 11 5 6 - - 0.0
26/03:00am 8.6 6.6 7.1 90 0.7 SW 7 13 4 7 - - 0.0
26/02:30am 8.2 5.8 6.8 91 0.7 SSW 9 11 5 6 - - 0.0
26/02:00am 7.5 5.3 6.0 90 0.7 S 7 9 4 5 - - 0.0
26/01:30am 7.2 4.9 5.7 90 0.7 SSW 7 11 4 6 - - 0.0
26/01:00am 7.1 4.7 5.4 89 0.8 SSW 7 9 4 5 - - 0.0
26/12:30am 7.1 4.7 5.4 89 0.8 SW 7 7 4 4 - - 0.0
26/12:00am 6.9 5.0 5.1 88 0.8 S 4 6 2 3 - - 0.0
 
Date/Time
WST
Temp
°C
App
Temp
°C
Dew
Point
°C
Rel
Hum
%
Delta-T
°C
Wind Press
QNH
hPa
Press
MSL
hPa
Rain since
9am
mm
Dir  Spd
km/h
Gust
km/h
Spd
kts
Gust
kts
25/11:30pm 7.5 5.2 5.6 88 0.9 S 7 9 4 5 - - 0.0
25/11:00pm 7.0 4.5 5.0 87 0.9 SSW 7 9 4 5 - - 0.0
25/10:30pm 7.1 4.7 5.1 87 0.9 SW 7 11 4 6 - - 0.0
25/10:00pm 6.8 5.6 4.6 86 1.0 CALM 0 4 0 2 - - 0.0
25/09:30pm 7.5 5.3 5.3 86 1.0 NE 6 7 3 4 - - 0.0
25/09:00pm 7.5 4.7 5.1 85 1.1 NNE 9 11 5 6 - - 0.0
25/08:30pm 7.3 4.4 4.8 84 1.1 ENE 9 11 5 6 - - 0.0
25/08:00pm 8.1 5.0 5.6 84 1.2 S 11 13 6 7 - - 0.0
25/07:30pm 8.4 5.7 5.5 82 1.3 S 9 13 5 7 - - 0.0
25/07:00pm 8.5 5.7 5.1 79 1.6 S 9 11 5 6 - - 0.0
25/06:30pm 9.3 6.5 5.3 76 1.8 SSW 9 13 5 7 - - 0.0
25/06:00pm 9.6 7.1 5.0 73 2.1 SW 7 11 4 6 - - 0.0
25/05:30pm 10.8 8.4 5.3 69 2.6 SSW 7 9 4 5 - - 0.0
25/05:00pm 12.5 10.2 5.7 63 3.3 SSW 7 9 4 5 - - 0.0
25/04:30pm 13.6 11.8 5.5 58 3.9 S 4 7 2 4 - - 0.0
25/04:00pm 13.5 11.4 5.9 60 3.7 SE 6 11 3 6 - - 0.0
25/03:30pm 13.8 11.6 6.2 60 3.7 E 7 13 4 7 - - 0.0
25/03:00pm 12.9 10.8 5.8 62 3.4 SW 6 11 3 6 - - 0.0
25/02:30pm 13.1 10.1 6.0 62 3.4 SE 11 15 6 8 - - 0.0
25/02:00pm 12.3 10.0 5.7 64 3.2 NE 7 13 4 7 - - 0.0
25/01:30pm 11.7 8.9 5.1 64 3.1 SSE 9 15 5 8 - - 0.0
25/01:00pm 11.3 8.9 5.2 66 2.9 S 7 11 4 6 - - 0.0
25/12:30pm 10.9 8.1 5.2 68 2.7 SE 9 17 5 9 - - 0.0
25/12:00pm 11.4 8.3 5.7 68 2.7 SE 11 17 6 9 - - 0.0
25/11:30am 11.1 7.6 5.4 68 2.7 ESE 13 20 7 11 - - 0.0
25/11:00am 11.0 7.9 5.7 70 2.5 SE 11 17 6 9 - - 0.0
25/10:30am 11.3 8.8 6.4 72 2.4 E 9 15 5 8 - - 0.0
25/10:00am 10.8 8.5 7.3 79 1.7 ESE 9 15 5 8 - - 0.0
25/09:30am 9.8 7.6 7.9 88 0.9 E 9 17 5 9 - - 0.0
25/09:00am 8.2 5.8 7.0 92 0.6 E 9 15 5 8 - - 0.0
25/08:30am 6.6 3.5 5.6 93 0.5 E 11 15 6 8 - - 0.0
25/08:00am 6.0 2.8 5.0 93 0.4 ESE 11 15 6 8 - - 0.0
25/07:30am 5.5 1.8 4.3 92 0.5 E 13 15 7 8 - - 0.0
25/07:00am 5.8 2.1 4.4 91 0.6 SE 13 17 7 9 - - 0.0
25/06:30am 6.5 3.7 5.1 91 0.6 SE 9 13 5 7 - - 0.0
25/06:00am 6.3 3.0 4.6 89 0.8 SE 11 17 6 9 - - 0.0
25/05:30am 6.9 3.3 4.9 87 0.9 SSE 13 22 7 12 - - 0.0
25/05:00am 7.3 4.1 5.1 86 1.0 SSE 11 20 6 11 - - 0.0
25/04:30am 7.6 4.9 5.4 86 1.0 SE 9 15 5 8 - - 0.0
25/04:00am 7.2 4.0 5.2 87 0.9 SE 11 17 6 9 - - 0.0
25/03:30am 6.5 4.0 4.7 88 0.8 E 7 9 4 5 - - 0.0
25/03:00am 6.0 3.0 4.2 88 0.8 E 9 11 5 6 - - 0.0
25/02:30am 5.0 1.8 2.9 86 0.9 ENE 9 11 5 6 - - 0.0
25/02:00am 5.3 2.1 3.0 85 1.0 ENE 9 11 5 6 - - 0.0
25/01:30am 5.8 3.0 3.3 84 1.1 ENE 7 9 4 5 - - 0.0
25/01:00am 7.0 4.4 4.3 83 1.2 NE 7 9 4 5 - - 0.0
25/12:30am 7.7 5.4 4.7 81 1.3 SE 6 9 3 5 - - 0.0
25/12:00am 8.1 5.3 5.0 81 1.4 SSE 9 13 5 7 - - 0.0
 
Date/Time
WST
Temp
°C
App
Temp
°C
Dew
Point
°C
Rel
Hum
%
Delta-T
°C
Wind Press
QNH
hPa
Press
MSL
hPa
Rain since
9am
mm
Dir  Spd
km/h
Gust
km/h
Spd
kts
Gust
kts
24/11:30pm 8.0 5.2 5.1 82 1.3 SSE 9 17 5 9 - - 0.0
24/11:00pm 6.9 4.0 4.4 84 1.1 SE 9 13 5 7 - - 0.0
24/10:30pm 6.7 3.7 4.2 84 1.1 SSE 9 13 5 7 - - 0.0
24/10:00pm 6.5 3.1 3.8 83 1.2 SE 11 13 6 7 - - 0.0
24/09:30pm 6.6 3.2 3.8 82 1.2 SE 11 15 6 8 - - 0.0
24/09:00pm 7.3 4.0 4.4 82 1.3 SSE 11 17 6 9 - - 0.0
24/08:30pm 6.9 3.2 4.2 83 1.2 SSW 13 17 7 9 - - 0.0
24/08:00pm 6.6 2.4 3.8 82 1.2 SSW 15 20 8 11 - - 0.0
24/07:30pm 6.8 3.0 3.9 82 1.3 S 13 20 7 11 - - 0.0
24/07:00pm 7.0 3.2 3.8 80 1.4 S 13 17 7 9 - - 0.0
24/06:30pm 7.3 3.5 3.7 78 1.6 SSW 13 20 7 11 - - 0.0
24/06:00pm 7.8 3.9 3.5 74 1.9 SSW 13 20 7 11 - - 0.0
24/05:30pm 8.7 4.9 3.7 71 2.2 SSW 13 22 7 12 - - 0.0
24/05:00pm 10.1 6.8 4.3 67 2.6 SW 11 24 6 13 - - 0.0
24/04:30pm 11.3 8.4 4.7 64 3.1 SSW 9 15 5 8 - - 0.0
24/04:00pm 11.6 8.3 4.6 62 3.2 SSW 11 20 6 11 - - 0.0
24/03:30pm 12.5 9.6 4.5 58 3.7 SSW 9 13 5 7 - - 0.0
24/03:00pm 12.5 10.1 5.4 62 3.4 W 7 20 4 11 - - 0.0
24/02:30pm 11.9 9.4 3.7 57 3.7 SW 6 9 3 5 - - 0.0
24/02:00pm 11.8 9.1 3.8 58 3.6 S 7 13 4 7 - - 0.0
24/01:30pm 11.7 9.0 3.7 58 3.6 S 7 13 4 7 - - 0.0
24/01:00pm 11.5 9.0 3.8 59 3.5 E 6 13 3 7 - - 0.0
24/12:30pm 10.9 8.8 3.9 62 3.2 SE 4 7 2 4 - - 0.0
24/12:00pm 10.8 8.2 4.0 63 3.1 ESE 7 15 4 8 - - 0.0
24/11:30am 10.9 8.0 4.4 64 3.0 E 9 22 5 12 - - 0.0
24/11:00am 10.1 7.1 4.0 66 2.8 ESE 9 17 5 9 - - 0.0
24/10:30am 9.5 5.7 3.7 67 2.6 ESE 13 20 7 11 - - 0.0
24/10:00am 8.8 5.7 3.6 70 2.3 ESE 9 20 5 11 - - 0.0
24/09:30am 8.1 5.3 3.4 72 2.1 ESE 7 15 4 8 - - 0.0
24/09:00am 7.5 4.1 3.9 78 1.6 ESE 11 17 6 9 - - 1.2
24/08:30am 5.5 2.3 2.8 83 1.1 ESE 9 15 5 8 - - 1.2
24/08:00am 4.2 0.1 2.1 86 0.9 ESE 13 17 7 9 - - 1.2
24/07:30am 3.2 -0.7 0.9 85 0.9 ESE 11 15 6 8 - - 1.2
24/07:00am 3.2 -0.8 0.8 84 0.9 ESE 11 13 6 7 - - 1.2
24/06:30am 3.6 -0.7 1.0 83 1.0 SE 13 17 7 9 - - 1.2
24/06:00am 3.7 -0.6 0.9 82 1.1 SE 13 20 7 11 - - 1.2
24/05:30am 3.8 -0.9 1.0 82 1.1 SE 15 22 8 12 - - 1.2
24/05:00am 4.0 -0.7 1.2 82 1.1 SE 15 22 8 12 - - 1.2
24/04:30am 3.9 -1.1 1.4 84 1.0 SE 17 24 9 13 - - 1.2
24/04:00am 3.4 -0.9 1.1 85 0.9 SE 13 17 7 9 - - 1.2
24/03:30am 3.1 -0.8 1.0 86 0.8 ESE 11 17 6 9 - - 1.2
24/03:00am 3.4 -0.9 1.3 86 0.8 SE 13 20 7 11 - - 1.2
24/02:30am 3.6 -1.0 1.5 86 0.8 SE 15 22 8 12 - - 1.2
24/02:00am 3.7 -0.5 1.6 86 0.8 SE 13 20 7 11 - - 1.2
24/01:30am 3.8 -0.8 1.7 86 0.8 SE 15 22 8 12 - - 1.2
24/01:00am 3.9 -0.7 1.8 86 0.8 SE 15 20 8 11 - - 1.2
24/12:30am 4.2 0.1 2.1 86 0.9 SE 13 20 7 11 - - 1.2
24/12:00am 4.5 0.4 2.0 84 1.0 SE 13 20 7 11 - - 1.2
 
Date/Time
WST
Temp
°C
App
Temp
°C
Dew
Point
°C
Rel
Hum
%
Delta-T
°C
Wind Press
QNH
hPa
Press
MSL
hPa
Rain since
9am
mm
Dir  Spd
km/h
Gust
km/h
Spd
kts
Gust
kts
23/11:30pm 5.1 0.3 2.5 83 1.1 SSE 17 26 9 14 - - 1.2
23/11:00pm 5.4 1.0 2.8 83 1.1 SSE 15 28 8 15 - - 1.2
23/10:30pm 5.8 1.5 3.0 82 1.2 SSE 15 24 8 13 - - 1.2
23/10:00pm 6.5 2.2 3.5 81 1.3 SSE 15 28 8 15 - - 1.2
23/09:30pm 6.5 1.9 3.8 83 1.2 SSE 17 28 9 15 - - 1.2
23/09:00pm 6.5 2.3 3.8 83 1.2 S 15 20 8 11 - - 1.2
23/08:30pm 6.7 2.9 3.9 82 1.2 S 13 17 7 9 - - 1.2
23/08:00pm 6.9 3.4 3.7 80 1.4 SSW 11 17 6 9 - - 1.2
23/07:30pm 7.7 3.9 4.1 78 1.6 SW 13 20 7 11 - - 1.2
23/07:00pm 8.1 4.0 4.3 77 1.7 SSW 15 24 8 13 - - 1.2
23/06:30pm 8.4 4.8 5.0 79 1.5 SW 13 17 7 9 - - 1.2
23/06:00pm 8.8 5.4 5.7 81 1.4 SW 13 20 7 11 - - 1.2
23/05:30pm 9.4 6.5 6.3 81 1.5 SW 11 15 6 8 - - 1.2
23/05:00pm 10.3 7.6 7.4 82 1.4 SW 11 20 6 11 - - 1.2
23/04:30pm 10.5 8.4 8.4 87 1.0 SSW 9 22 5 12 - - 1.2
23/04:00pm 10.3 7.5 8.6 89 0.9 SW 13 22 7 12 - - 1.2
23/03:30pm 10.0 7.2 8.6 91 0.7 SW 13 22 7 12 - - 1.2
23/03:00pm 10.1 7.3 8.5 90 0.8 SW 13 20 7 11 - - 1.0
23/02:30pm 10.3 7.0 8.2 87 1.0 SW 15 28 8 15 - - 1.0
23/02:00pm 11.3 7.4 7.0 75 2.1 W 17 32 9 17 - - 0.2
23/01:30pm 12.3 8.0 7.2 71 2.5 W 19 33 10 18 - - 0.0
23/01:00pm 12.7 8.5 7.6 71 2.5 W 19 32 10 17 - - 0.0
23/12:30pm 12.2 9.6 7.9 75 2.1 W 11 20 6 11 - - 0.0
23/12:00pm 11.7 7.2 7.0 73 2.3 WSW 20 33 11 18 - - 0.0
23/11:30am 11.1 7.5 6.6 74 2.2 W 15 32 8 17 - - 0.0
23/11:00am 11.4 9.3 8.1 80 1.6 WNW 9 17 5 9 - - 0.0
23/10:30am 10.9 8.0 8.1 83 1.4 W 13 26 7 14 - - 0.0
23/10:00am 9.3 6.6 7.3 87 1.0 WNW 11 17 6 9 - - 0.0
23/09:30am 8.3 4.8 5.6 83 1.2 NW 13 20 7 11 - - 0.0
23/09:00am 8.5 5.5 5.8 83 1.3 WNW 11 20 6 11 - - 0.2

Other Formats:

Comma delimited format used in spreadsheet applications
http://www.bom.gov.au/fwo/IDW60801/IDW60801.95610.axf

JavaScript Object Notation format (JSON) in row-major order
http://www.bom.gov.au/fwo/IDW60801/IDW60801.95610.json